Mckinley Sea — WDE5024 — position and weather

sailwx.info

Track history (hours):
 
Tides and Currents Weather Stations Pressure Air Temp Water Temp Dewpoint Dewpoint Depression Visibility Wind Speed Wind Dir Waves Ship Positions

Mckinley Sea

Owner: Kirby Offshore Marine, LLC, HOUSTON, TX. More information available from US FCC via Universal Licensing System and Coast Guard Vessel Documentation Center.

Last reported at 2018-Jun-25 09:14 UTC. Time now 2018-Jun-25 09:37 UTC.
Position N 42°20' W 070°59'.

Length 153 m; draft 5.5 m.

Type: . MMSI: 367360980.

Date/timePositionNaut miles runAvg speedWind from/ knotsBaromVisibWave heightAir tempDewpointWater temp
2018-Jun-25 09:14N 42°20' W 070°59'0 0.2
2018-Jun-25 08:50N 42°20' W 070°59'1 3.7
2018-Jun-25 08:30N 42°20' W 071°00'3 5.9
2018-Jun-25 08:01N 42°23' W 071°03'1 1.8
2018-Jun-25 07:25N 42°23' W 071°01'0 0.0
2018-Jun-25 06:54N 42°23' W 071°01'0 0.0
2018-Jun-25 06:28N 42°23' W 071°01'0 0.0
2018-Jun-25 05:49N 42°23' W 071°01'0 0.0
2018-Jun-25 05:27N 42°23' W 071°01'0 0.0
2018-Jun-25 04:55N 42°23' W 071°01'0 0.0
2018-Jun-25 04:28N 42°23' W 071°01'0 0.0
2018-Jun-25 03:48N 42°23' W 071°01'0 0.0
2018-Jun-25 03:10N 42°23' W 071°01'0 0.0
2018-Jun-25 02:19N 42°23' W 071°01'0 0.0
2018-Jun-25 01:58N 42°23' W 071°01'0 0.0
2018-Jun-25 01:31N 42°23' W 071°01'0 0.0
2018-Jun-25 00:54N 42°23' W 071°01'0 0.0
2018-Jun-25 00:30N 42°23' W 071°01'0 0.0
2018-Jun-25 00:00N 42°23' W 071°01'0 0.0
2018-Jun-24 23:18N 42°23' W 071°01'0 0.0
2018-Jun-24 23:00N 42°23' W 071°01'0 0.7
2018-Jun-24 22:31N 42°23' W 071°01'0 0.4
2018-Jun-24 22:01N 42°24' W 071°01'1 3.0
2018-Jun-24 21:31N 42°23' W 071°03'1 2.6
2018-Jun-24 21:01N 42°22' W 071°02'0 0.1
2018-Jun-24 20:30N 42°22' W 071°02'0 0.0
2018-Jun-24 20:00N 42°22' W 071°02'0 0.1
2018-Jun-24 19:30N 42°21' W 071°02'0 0.1
2018-Jun-24 19:00N 42°21' W 071°02'0 0.0
2018-Jun-24 18:30N 42°21' W 071°02'0 0.0
2018-Jun-24 18:00N 42°21' W 071°02'0 0.0
2018-Jun-24 17:30N 42°21' W 071°02'0 0.0
2018-Jun-24 17:00N 42°21' W 071°02'0 0.0
2018-Jun-24 16:30N 42°21' W 071°02'0 0.0
2018-Jun-24 16:00N 42°21' W 071°02'0 0.0
2018-Jun-24 15:30N 42°21' W 071°02'0 0.0
2018-Jun-24 15:00N 42°21' W 071°02'0 0.0
2018-Jun-24 14:30N 42°21' W 071°02'0 0.1
2018-Jun-24 14:00N 42°21' W 071°02'0 0.1
2018-Jun-24 13:30N 42°22' W 071°02'0 0.1
2018-Jun-24 13:00N 42°22' W 071°02'0 0.0
2018-Jun-24 12:30N 42°22' W 071°02'0 0.0
2018-Jun-24 12:00N 42°22' W 071°02'0 0.0
2018-Jun-24 11:30N 42°22' W 071°02'0 0.0
2018-Jun-24 11:00N 42°22' W 071°02'0 0.1
2018-Jun-24 10:30N 42°22' W 071°02'0 0.1
2018-Jun-24 10:00N 42°22' W 071°02'0 0.1
2018-Jun-24 09:30N 42°21' W 071°02'0 0.1
2018-Jun-24 09:00N 42°21' W 071°02'0 0.0
2018-Jun-24 08:30N 42°21' W 071°02'0 0.0
2018-Jun-24 08:00N 42°21' W 071°02'0 0.0
2018-Jun-24 07:30N 42°21' W 071°02'0 0.0
2018-Jun-24 07:00N 42°21' W 071°02'0 0.0
2018-Jun-24 06:30N 42°21' W 071°02'0 0.0
2018-Jun-24 06:00N 42°21' W 071°02'0 0.0
2018-Jun-24 05:30N 42°21' W 071°02'0 0.0
2018-Jun-24 05:00N 42°21' W 071°02'0 0.0
2018-Jun-24 04:30N 42°21' W 071°02'0 0.0
2018-Jun-24 04:00N 42°21' W 071°02'0 0.0
2018-Jun-24 03:30N 42°21' W 071°02'0 0.0
2018-Jun-24 03:00N 42°21' W 071°02'0 0.0
2018-Jun-24 02:30N 42°21' W 071°02'0 0.0
2018-Jun-24 02:00N 42°21' W 071°02'0 0.0
2018-Jun-24 01:30N 42°21' W 071°02'0 0.1
2018-Jun-24 01:00N 42°21' W 071°02'0 0.2
2018-Jun-24 00:30N 42°21' W 071°02'0 0.2
2018-Jun-24 00:00N 42°21' W 071°02'0 0.0
2018-Jun-23 23:30N 42°22' W 071°02'0 0.0
2018-Jun-23 23:00N 42°22' W 071°02'0 0.1
2018-Jun-23 22:30N 42°21' W 071°02'0 0.1
2018-Jun-23 22:00N 42°21' W 071°02'0 0.3
2018-Jun-23 21:30N 42°21' W 071°02'1 1.7
2018-Jun-23 21:00N 42°21' W 071°01'3 6.4
2018-Jun-23 20:30N 42°20' W 070°57'3 6.7
2018-Jun-23 20:00N 42°23' W 070°54'3 6.3
2018-Jun-23 19:30N 42°22' W 070°49'4 7.1
2018-Jun-23 19:00N 42°20' W 070°45'4 7.1
2018-Jun-23 18:30N 42°18' W 070°41'4 7.0
2018-Jun-23 18:00N 42°16' W 070°38'3 6.8
2018-Jun-23 17:30N 42°13' W 070°34'4 7.0
2018-Jun-23 16:59N 42°11' W 070°31'3 7.3
2018-Jun-23 16:31N 42°07' W 070°30'5 7.4
2018-Jun-23 15:54N 42°03' W 070°29'3 7.4
2018-Jun-23 15:29N 41°60' W 070°28'4 7.4
2018-Jun-23 14:59N 41°56' W 070°28'4 7.2
2018-Jun-23 14:30N 41°53' W 070°28'4 7.0
2018-Jun-23 13:58N 41°49' W 070°28'13 4.0
2018-Jun-23 10:39N 41°40' W 070°41'2 6.6
2018-Jun-23 10:23N 41°39' W 070°42'3 6.5
2018-Jun-23 09:59N 41°36' W 070°43'79 6.5
2018-Jun-22 21:52N 41°10' W 072°22'2 5.0
2018-Jun-22 21:30N 41°10' W 072°24'5 5.2
2018-Jun-22 20:29N 41°08' W 072°31'3 5.4
2018-Jun-22 19:59N 41°08' W 072°34'3 6.0
2018-Jun-22 19:30N 41°07' W 072°38'60 6.5
2018-Jun-22 10:20N 40°48' W 073°53'2 5.9
2018-Jun-22 09:58N 40°47' W 073°56'3 6.9
2018-Jun-22 09:30N 40°44' W 073°58'3 5.9
2018-Jun-22 09:01N 40°42' W 074°00'3 5.8
2018-Jun-22 08:31N 40°40' W 074°03'2 3.1
2018-Jun-22 08:00N 40°38' W 074°04'0 0.2
2018-Jun-22 07:30N 40°38' W 074°04'0 0.1
2018-Jun-22 07:01N 40°38' W 074°04'0 0.1
2018-Jun-22 06:30N 40°38' W 074°04'1 2.2
2018-Jun-22 06:00N 40°39' W 074°05'1 3.0
2018-Jun-22 05:31N 40°39' W 074°07'2 3.0
2018-Jun-22 05:00N 40°39' W 074°09'2 4.0
2018-Jun-22 04:25N 40°38' W 074°12'2 4.3
2018-Jun-22 03:59N 40°36' W 074°12'3 0.3
2018-Jun-21 19:25N 40°39' W 074°11'1 2.3
2018-Jun-21 18:58N 40°39' W 074°10'0 0.0
2018-Jun-21 18:28N 40°39' W 074°10'0 0.0
2018-Jun-21 17:58N 40°39' W 074°10'0 0.0
2018-Jun-21 17:28N 40°39' W 074°10'0 0.0
2018-Jun-21 16:58N 40°39' W 074°10'1 1.7
2018-Jun-21 16:31N 40°39' W 074°11'2 0.1
2018-Jun-21 03:16N 40°37' W 074°12'1 4.2
2018-Jun-21 02:58N 40°38' W 074°12'3 5.7
2018-Jun-21 02:30N 40°39' W 074°08'4 7.5
2018-Jun-21 02:01N 40°39' W 074°03'1 2.4
2018-Jun-21 01:30N 40°40' W 074°02'0 0.0
2018-Jun-21 00:58N 40°40' W 074°02'0 0.1
2018-Jun-21 00:28N 40°40' W 074°02'0 0.1
2018-Jun-20 23:58N 40°40' W 074°02'0 0.1
2018-Jun-20 23:28N 40°40' W 074°02'0 0.2
2018-Jun-20 22:58N 40°40' W 074°02'0 0.2
2018-Jun-20 22:28N 40°40' W 074°02'0 0.1
2018-Jun-20 21:58N 40°40' W 074°02'0 0.1
2018-Jun-20 21:28N 40°40' W 074°02'0 0.1
2018-Jun-20 20:58N 40°40' W 074°02'0 0.0
2018-Jun-20 20:28N 40°40' W 074°02'0 0.0
2018-Jun-20 19:58N 40°40' W 074°02'0 0.1
2018-Jun-20 19:25N 40°40' W 074°02'0 0.0
2018-Jun-20 18:58N 40°40' W 074°02'0 0.0
2018-Jun-20 18:28N 40°40' W 074°02'0 0.0
2018-Jun-20 17:58N 40°40' W 074°02'0 0.0
2018-Jun-20 17:28N 40°40' W 074°02'0 0.1
2018-Jun-20 16:58N 40°40' W 074°02'0 0.3
2018-Jun-20 16:28N 40°40' W 074°02'0 0.1
2018-Jun-20 15:58N 40°40' W 074°02'0 0.1
2018-Jun-20 15:28N 40°40' W 074°02'0 0.1
2018-Jun-20 14:58N 40°40' W 074°02'0 0.0
2018-Jun-20 14:28N 40°40' W 074°02'0 0.0
2018-Jun-20 13:58N 40°40' W 074°02'0 0.0
2018-Jun-20 13:25N 40°40' W 074°02'0 0.0
2018-Jun-20 12:58N 40°40' W 074°02'0 0.0
2018-Jun-20 12:28N 40°40' W 074°02'0 0.0
2018-Jun-20 11:58N 40°40' W 074°02'0 0.0
2018-Jun-20 11:28N 40°40' W 074°02'0 0.1
2018-Jun-20 10:58N 40°40' W 074°02'0 0.0
2018-Jun-20 10:28N 40°40' W 074°02'0 0.0
2018-Jun-20 09:58N 40°40' W 074°02'0 0.0
2018-Jun-20 09:28N 40°40' W 074°02'0 0.3
2018-Jun-20 08:58N 40°40' W 074°02'0 0.1
2018-Jun-20 08:28N 40°40' W 074°02'0 0.1
2018-Jun-20 07:58N 40°40' W 074°02'0 0.0
2018-Jun-20 07:28N 40°40' W 074°02'0 0.0
2018-Jun-20 06:58N 40°40' W 074°02'0 0.0
2018-Jun-20 06:28N 40°40' W 074°02'0 0.0
2018-Jun-20 05:58N 40°40' W 074°02'0 0.0
2018-Jun-20 05:28N 40°40' W 074°02'0 0.1
2018-Jun-20 04:58N 40°40' W 074°02'0 0.2
2018-Jun-20 04:28N 40°40' W 074°02'0 0.1
2018-Jun-20 03:58N 40°40' W 074°02'0 0.2
2018-Jun-20 03:28N 40°40' W 074°02'0 0.0
2018-Jun-20 02:58N 40°40' W 074°02'0 0.0
2018-Jun-20 02:28N 40°40' W 074°02'0 0.0
2018-Jun-20 01:58N 40°40' W 074°02'0 0.0
2018-Jun-20 01:28N 40°40' W 074°02'0 0.1
2018-Jun-20 00:58N 40°40' W 074°02'0 0.0
2018-Jun-20 00:28N 40°40' W 074°02'0 0.0
2018-Jun-19 23:58N 40°40' W 074°02'0 0.0
2018-Jun-19 23:28N 40°40' W 074°02'0 0.0
2018-Jun-19 22:58N 40°40' W 074°02'0 0.0
2018-Jun-19 22:28N 40°40' W 074°02'0 0.1
2018-Jun-19 21:58N 40°40' W 074°02'0 0.1
2018-Jun-19 21:28N 40°40' W 074°02'0 0.0
2018-Jun-19 20:58N 40°40' W 074°02'0 0.0
2018-Jun-19 20:28N 40°40' W 074°02'0 0.3
2018-Jun-19 19:58N 40°40' W 074°02'0 0.2
2018-Jun-19 19:28N 40°40' W 074°02'0 0.1
2018-Jun-19 18:55N 40°40' W 074°02'0 0.1
2018-Jun-19 18:28N 40°40' W 074°02'0 0.0
2018-Jun-19 17:58N 40°40' W 074°02'0 0.0
2018-Jun-19 17:28N 40°40' W 074°02'0 0.0
2018-Jun-19 16:58N 40°40' W 074°02'0 0.3
2018-Jun-19 16:28N 40°40' W 074°02'0 0.1
2018-Jun-19 15:58N 40°40' W 074°02'0 0.0
2018-Jun-19 15:28N 40°40' W 074°02'0 0.1
2018-Jun-19 14:58N 40°40' W 074°02'0 0.0
2018-Jun-19 14:28N 40°40' W 074°02'0 0.0
2018-Jun-19 13:58N 40°40' W 074°02'0 0.0
2018-Jun-19 13:28N 40°40' W 074°02'0 0.0
2018-Jun-19 12:58N 40°40' W 074°02'0 0.0
2018-Jun-19 12:28N 40°40' W 074°02'0 0.0
2018-Jun-19 11:58N 40°40' W 074°02'0 0.0
2018-Jun-19 11:28N 40°40' W 074°02'0 0.0
2018-Jun-19 10:58N 40°40' W 074°02'0 0.0
2018-Jun-19 10:28N 40°40' W 074°02'0 0.1
2018-Jun-19 09:58N 40°40' W 074°02'0 0.0
2018-Jun-19 09:28N 40°40' W 074°02'0 0.0
2018-Jun-19 08:58N 40°40' W 074°02'0 0.1
2018-Jun-19 08:28N 40°40' W 074°02'0 0.1
2018-Jun-19 07:58N 40°40' W 074°02'0 0.1
2018-Jun-19 07:28N 40°40' W 074°02'0 0.0
2018-Jun-19 06:58N 40°40' W 074°02'0 0.0
2018-Jun-19 06:28N 40°40' W 074°02'0 0.0
2018-Jun-19 05:58N 40°40' W 074°02'0 0.0
2018-Jun-19 05:28N 40°40' W 074°02'0 0.0
2018-Jun-19 04:58N 40°40' W 074°02'0 0.1
2018-Jun-19 04:28N 40°40' W 074°02'0 0.1
2018-Jun-19 03:58N 40°40' W 074°02'0 0.1
2018-Jun-19 03:28N 40°40' W 074°02'0 0.0
2018-Jun-19 02:58N 40°40' W 074°02'0 0.2
2018-Jun-19 02:28N 40°40' W 074°02'0 0.2
2018-Jun-19 01:58N 40°40' W 074°02'0 0.1
2018-Jun-19 01:28N 40°40' W 074°02'0 0.1
2018-Jun-19 00:58N 40°40' W 074°02'0 0.3
2018-Jun-19 00:28N 40°40' W 074°02'0 0.2
2018-Jun-18 23:55N 40°40' W 074°02'0 0.1
2018-Jun-18 23:28N 40°40' W 074°02'0 0.0
2018-Jun-18 22:55N 40°40' W 074°02'0 0.0
2018-Jun-18 22:28N 40°40' W 074°02'0 0.1
2018-Jun-18 21:58N 40°40' W 074°02'0 0.1
2018-Jun-18 21:28N 40°40' W 074°02'0 0.0
2018-Jun-18 20:58N 40°40' W 074°02'0 0.1
2018-Jun-18 20:28N 40°40' W 074°02'0 0.2
2018-Jun-18 19:58N 40°40' W 074°02'0 0.1
2018-Jun-18 19:28N 40°40' W 074°02'0 0.0
2018-Jun-18 18:58N 40°40' W 074°02'0 0.1
2018-Jun-18 18:25N 40°40' W 074°02'0 0.1
2018-Jun-18 17:58N 40°40' W 074°02'0 0.0
2018-Jun-18 17:28N 40°40' W 074°02'0 0.0
2018-Jun-18 16:58N 40°40' W 074°02'0 0.0
2018-Jun-18 16:28N 40°40' W 074°02'0 0.0
2018-Jun-18 15:58N 40°40' W 074°02'0 0.0
2018-Jun-18 15:28N 40°40' W 074°02'2 5.1
2018-Jun-18 15:00N 40°39' W 074°05'4 7.2
2018-Jun-18 14:29N 40°39' W 074°10'0 0.0
2018-Jun-18 13:59N 40°39' W 074°10'0 0.0
2018-Jun-18 13:30N 40°39' W 074°10'0 0.0
2018-Jun-18 12:59N 40°39' W 074°10'0 0.0
2018-Jun-18 12:29N 40°39' W 074°10'0 0.0
2018-Jun-18 11:59N 40°39' W 074°10'0 0.0
2018-Jun-18 11:24N 40°39' W 074°10'0 0.0
2018-Jun-18 11:00N 40°39' W 074°10'2 3.8
2018-Jun-18 10:30N 40°39' W 074°07'4 8.0
2018-Jun-18 10:01N 40°40' W 074°02'0 0.1
2018-Jun-18 09:30N 40°40' W 074°02'0 0.0
2018-Jun-18 09:00N 40°40' W 074°02'0 0.0
2018-Jun-18 08:30N 40°40' W 074°02'0 0.0
2018-Jun-18 08:00N 40°40' W 074°02'0 0.0
2018-Jun-18 07:30N 40°40' W 074°02'0 0.3
2018-Jun-18 07:00N 40°40' W 074°02'0 0.2
2018-Jun-18 06:30N 40°40' W 074°02'0 0.1
2018-Jun-18 06:00N 40°40' W 074°02'0 0.0
2018-Jun-18 05:30N 40°40' W 074°02'0 0.0
2018-Jun-18 05:00N 40°40' W 074°02'0 0.0
2018-Jun-18 04:30N 40°40' W 074°02'0 0.0
2018-Jun-18 04:00N 40°40' W 074°02'0 0.0
2018-Jun-18 03:30N 40°40' W 074°02'0 0.0
2018-Jun-18 03:00N 40°40' W 074°02'0 0.0
2018-Jun-18 02:30N 40°40' W 074°02'0 0.0
2018-Jun-18 02:00N 40°40' W 074°02'0 0.2
2018-Jun-18 01:27N 40°40' W 074°02'0 0.1
2018-Jun-18 01:00N 40°40' W 074°02'0 0.1
2018-Jun-18 00:30N 40°40' W 074°02'0 0.1
2018-Jun-18 00:00N 40°40' W 074°02'0 0.1
2018-Jun-17 23:30N 40°40' W 074°02'0 0.0
2018-Jun-17 23:00N 40°40' W 074°02'0 0.1
2018-Jun-17 22:30N 40°40' W 074°02'0 0.0
2018-Jun-17 22:00N 40°40' W 074°02'0 0.0
2018-Jun-17 21:30N 40°40' W 074°02'0 0.1
2018-Jun-17 21:00N 40°40' W 074°02'0 0.0
2018-Jun-17 20:30N 40°40' W 074°02'0 0.0
2018-Jun-17 19:51N 40°40' W 074°02'0 0.0
2018-Jun-17 19:30N 40°40' W 074°02'0 0.3
2018-Jun-17 19:00N 40°40' W 074°02'0 0.1
2018-Jun-17 18:21N 40°40' W 074°02'0 0.1
2018-Jun-17 18:00N 40°40' W 074°02'0 0.0
2018-Jun-17 17:27N 40°40' W 074°02'0 0.1
2018-Jun-17 17:00N 40°40' W 074°02'2 3.1
2018-Jun-17 16:30N 40°42' W 074°02'4 7.1
2018-Jun-17 16:00N 40°45' W 074°01'  
Track history (hours):
 
Tides and Currents Weather Stations Pressure Air Temp Water Temp Dewpoint Dewpoint Depression Visibility Wind Speed Wind Dir Waves Ship Positions

Mckinley Sea

Owner: Kirby Offshore Marine, LLC, HOUSTON, TX. More information available from US FCC via Universal Licensing System and Coast Guard Vessel Documentation Center.

Last reported at 2018-Jun-25 09:14 UTC. Time now 2018-Jun-25 09:37 UTC.
Position N 42°20' W 070°59'.

Length 153 m; draft 5.5 m.

Type: . MMSI: 367360980.

Date/timePositionNaut miles runAvg speedWind from/ knotsBaromVisibWave heightAir tempDewpointWater temp
2018-Jun-25 09:14N 42°20' W 070°59'0 0.2
2018-Jun-25 08:50N 42°20' W 070°59'1 3.7
2018-Jun-25 08:30N 42°20' W 071°00'3 5.9
2018-Jun-25 08:01N 42°23' W 071°03'1 1.8
2018-Jun-25 07:25N 42°23' W 071°01'0 0.0
2018-Jun-25 06:54N 42°23' W 071°01'0 0.0
2018-Jun-25 06:28N 42°23' W 071°01'0 0.0
2018-Jun-25 05:49N 42°23' W 071°01'0 0.0
2018-Jun-25 05:27N 42°23' W 071°01'0 0.0
2018-Jun-25 04:55N 42°23' W 071°01'0 0.0
2018-Jun-25 04:28N 42°23' W 071°01'0 0.0
2018-Jun-25 03:48N 42°23' W 071°01'0 0.0
2018-Jun-25 03:10N 42°23' W 071°01'0 0.0
2018-Jun-25 02:19N 42°23' W 071°01'0 0.0
2018-Jun-25 01:58N 42°23' W 071°01'0 0.0
2018-Jun-25 01:31N 42°23' W 071°01'0 0.0
2018-Jun-25 00:54N 42°23' W 071°01'0 0.0
2018-Jun-25 00:30N 42°23' W 071°01'0 0.0
2018-Jun-25 00:00N 42°23' W 071°01'0 0.0
2018-Jun-24 23:18N 42°23' W 071°01'0 0.0
2018-Jun-24 23:00N 42°23' W 071°01'0 0.7
2018-Jun-24 22:31N 42°23' W 071°01'0 0.4
2018-Jun-24 22:01N 42°24' W 071°01'1 3.0
2018-Jun-24 21:31N 42°23' W 071°03'1 2.6
2018-Jun-24 21:01N 42°22' W 071°02'0 0.1
2018-Jun-24 20:30N 42°22' W 071°02'0 0.0
2018-Jun-24 20:00N 42°22' W 071°02'0 0.1
2018-Jun-24 19:30N 42°21' W 071°02'0 0.1
2018-Jun-24 19:00N 42°21' W 071°02'0 0.0
2018-Jun-24 18:30N 42°21' W 071°02'0 0.0
2018-Jun-24 18:00N 42°21' W 071°02'0 0.0
2018-Jun-24 17:30N 42°21' W 071°02'0 0.0
2018-Jun-24 17:00N 42°21' W 071°02'0 0.0
2018-Jun-24 16:30N 42°21' W 071°02'0 0.0
2018-Jun-24 16:00N 42°21' W 071°02'0 0.0
2018-Jun-24 15:30N 42°21' W 071°02'0 0.0
2018-Jun-24 15:00N 42°21' W 071°02'0 0.0
2018-Jun-24 14:30N 42°21' W 071°02'0 0.1
2018-Jun-24 14:00N 42°21' W 071°02'0 0.1
2018-Jun-24 13:30N 42°22' W 071°02'0 0.1
2018-Jun-24 13:00N 42°22' W 071°02'0 0.0
2018-Jun-24 12:30N 42°22' W 071°02'0 0.0
2018-Jun-24 12:00N 42°22' W 071°02'0 0.0
2018-Jun-24 11:30N 42°22' W 071°02'0 0.0
2018-Jun-24 11:00N 42°22' W 071°02'0 0.1
2018-Jun-24 10:30N 42°22' W 071°02'0 0.1
2018-Jun-24 10:00N 42°22' W 071°02'0 0.1
2018-Jun-24 09:30N 42°21' W 071°02'0 0.1
2018-Jun-24 09:00N 42°21' W 071°02'0 0.0
2018-Jun-24 08:30N 42°21' W 071°02'0 0.0
2018-Jun-24 08:00N 42°21' W 071°02'0 0.0
2018-Jun-24 07:30N 42°21' W 071°02'0 0.0
2018-Jun-24 07:00N 42°21' W 071°02'0 0.0
2018-Jun-24 06:30N 42°21' W 071°02'0 0.0
2018-Jun-24 06:00N 42°21' W 071°02'0 0.0
2018-Jun-24 05:30N 42°21' W 071°02'0 0.0
2018-Jun-24 05:00N 42°21' W 071°02'0 0.0
2018-Jun-24 04:30N 42°21' W 071°02'0 0.0
2018-Jun-24 04:00N 42°21' W 071°02'0 0.0
2018-Jun-24 03:30N 42°21' W 071°02'0 0.0
2018-Jun-24 03:00N 42°21' W 071°02'0 0.0
2018-Jun-24 02:30N 42°21' W 071°02'0 0.0
2018-Jun-24 02:00N 42°21' W 071°02'0 0.0
2018-Jun-24 01:30N 42°21' W 071°02'0 0.1
2018-Jun-24 01:00N 42°21' W 071°02'0 0.2
2018-Jun-24 00:30N 42°21' W 071°02'0 0.2
2018-Jun-24 00:00N 42°21' W 071°02'0 0.0
2018-Jun-23 23:30N 42°22' W 071°02'0 0.0
2018-Jun-23 23:00N 42°22' W 071°02'0 0.1
2018-Jun-23 22:30N 42°21' W 071°02'0 0.1
2018-Jun-23 22:00N 42°21' W 071°02'0 0.3
2018-Jun-23 21:30N 42°21' W 071°02'1 1.7
2018-Jun-23 21:00N 42°21' W 071°01'3 6.4
2018-Jun-23 20:30N 42°20' W 070°57'3 6.7
2018-Jun-23 20:00N 42°23' W 070°54'3 6.3
2018-Jun-23 19:30N 42°22' W 070°49'4 7.1
2018-Jun-23 19:00N 42°20' W 070°45'4 7.1
2018-Jun-23 18:30N 42°18' W 070°41'4 7.0
2018-Jun-23 18:00N 42°16' W 070°38'3 6.8
2018-Jun-23 17:30N 42°13' W 070°34'4 7.0
2018-Jun-23 16:59N 42°11' W 070°31'3 7.3
2018-Jun-23 16:31N 42°07' W 070°30'5 7.4
2018-Jun-23 15:54N 42°03' W 070°29'3 7.4
2018-Jun-23 15:29N 41°60' W 070°28'4 7.4
2018-Jun-23 14:59N 41°56' W 070°28'4 7.2
2018-Jun-23 14:30N 41°53' W 070°28'4 7.0
2018-Jun-23 13:58N 41°49' W 070°28'13 4.0
2018-Jun-23 10:39N 41°40' W 070°41'2 6.6
2018-Jun-23 10:23N 41°39' W 070°42'3 6.5
2018-Jun-23 09:59N 41°36' W 070°43'79 6.5
2018-Jun-22 21:52N 41°10' W 072°22'2 5.0
2018-Jun-22 21:30N 41°10' W 072°24'5 5.2
2018-Jun-22 20:29N 41°08' W 072°31'3 5.4
2018-Jun-22 19:59N 41°08' W 072°34'3 6.0
2018-Jun-22 19:30N 41°07' W 072°38'60 6.5
2018-Jun-22 10:20N 40°48' W 073°53'2 5.9
2018-Jun-22 09:58N 40°47' W 073°56'3 6.9
2018-Jun-22 09:30N 40°44' W 073°58'3 5.9
2018-Jun-22 09:01N 40°42' W 074°00'3 5.8
2018-Jun-22 08:31N 40°40' W 074°03'2 3.1
2018-Jun-22 08:00N 40°38' W 074°04'0 0.2
2018-Jun-22 07:30N 40°38' W 074°04'0 0.1
2018-Jun-22 07:01N 40°38' W 074°04'0 0.1
2018-Jun-22 06:30N 40°38' W 074°04'1 2.2
2018-Jun-22 06:00N 40°39' W 074°05'1 3.0
2018-Jun-22 05:31N 40°39' W 074°07'2 3.0
2018-Jun-22 05:00N 40°39' W 074°09'2 4.0
2018-Jun-22 04:25N 40°38' W 074°12'2 4.3
2018-Jun-22 03:59N 40°36' W 074°12'3 0.3
2018-Jun-21 19:25N 40°39' W 074°11'1 2.3
2018-Jun-21 18:58N 40°39' W 074°10'0 0.0
2018-Jun-21 18:28N 40°39' W 074°10'0 0.0
2018-Jun-21 17:58N 40°39' W 074°10'0 0.0
2018-Jun-21 17:28N 40°39' W 074°10'0 0.0
2018-Jun-21 16:58N 40°39' W 074°10'1 1.7
2018-Jun-21 16:31N 40°39' W 074°11'2 0.1
2018-Jun-21 03:16N 40°37' W 074°12'1 4.2
2018-Jun-21 02:58N 40°38' W 074°12'3 5.7
2018-Jun-21 02:30N 40°39' W 074°08'4 7.5
2018-Jun-21 02:01N 40°39' W 074°03'1 2.4
2018-Jun-21 01:30N 40°40' W 074°02'0 0.0
2018-Jun-21 00:58N 40°40' W 074°02'0 0.1
2018-Jun-21 00:28N 40°40' W 074°02'0 0.1
2018-Jun-20 23:58N 40°40' W 074°02'0 0.1
2018-Jun-20 23:28N 40°40' W 074°02'0 0.2
2018-Jun-20 22:58N 40°40' W 074°02'0 0.2
2018-Jun-20 22:28N 40°40' W 074°02'0 0.1
2018-Jun-20 21:58N 40°40' W 074°02'0 0.1
2018-Jun-20 21:28N 40°40' W 074°02'0 0.1
2018-Jun-20 20:58N 40°40' W 074°02'0 0.0
2018-Jun-20 20:28N 40°40' W 074°02'0 0.0
2018-Jun-20 19:58N 40°40' W 074°02'0 0.1
2018-Jun-20 19:25N 40°40' W 074°02'0 0.0
2018-Jun-20 18:58N 40°40' W 074°02'0 0.0
2018-Jun-20 18:28N 40°40' W 074°02'0 0.0
2018-Jun-20 17:58N 40°40' W 074°02'0 0.0
2018-Jun-20 17:28N 40°40' W 074°02'0 0.1
2018-Jun-20 16:58N 40°40' W 074°02'0 0.3
2018-Jun-20 16:28N 40°40' W 074°02'0 0.1
2018-Jun-20 15:58N 40°40' W 074°02'0 0.1
2018-Jun-20 15:28N 40°40' W 074°02'0 0.1
2018-Jun-20 14:58N 40°40' W 074°02'0 0.0
2018-Jun-20 14:28N 40°40' W 074°02'0 0.0
2018-Jun-20 13:58N 40°40' W 074°02'0 0.0
2018-Jun-20 13:25N 40°40' W 074°02'0 0.0
2018-Jun-20 12:58N 40°40' W 074°02'0 0.0
2018-Jun-20 12:28N 40°40' W 074°02'0 0.0
2018-Jun-20 11:58N 40°40' W 074°02'0 0.0
2018-Jun-20 11:28N 40°40' W 074°02'0 0.1
2018-Jun-20 10:58N 40°40' W 074°02'0 0.0
2018-Jun-20 10:28N 40°40' W 074°02'0 0.0
2018-Jun-20 09:58N 40°40' W 074°02'0 0.0
2018-Jun-20 09:28N 40°40' W 074°02'0 0.3
2018-Jun-20 08:58N 40°40' W 074°02'0 0.1
2018-Jun-20 08:28N 40°40' W 074°02'0 0.1
2018-Jun-20 07:58N 40°40' W 074°02'0 0.0
2018-Jun-20 07:28N 40°40' W 074°02'0 0.0
2018-Jun-20 06:58N 40°40' W 074°02'0 0.0
2018-Jun-20 06:28N 40°40' W 074°02'0 0.0
2018-Jun-20 05:58N 40°40' W 074°02'0 0.0
2018-Jun-20 05:28N 40°40' W 074°02'0 0.1
2018-Jun-20 04:58N 40°40' W 074°02'0 0.2
2018-Jun-20 04:28N 40°40' W 074°02'0 0.1
2018-Jun-20 03:58N 40°40' W 074°02'0 0.2
2018-Jun-20 03:28N 40°40' W 074°02'0 0.0
2018-Jun-20 02:58N 40°40' W 074°02'0 0.0
2018-Jun-20 02:28N 40°40' W 074°02'0 0.0
2018-Jun-20 01:58N 40°40' W 074°02'0 0.0
2018-Jun-20 01:28N 40°40' W 074°02'0 0.1
2018-Jun-20 00:58N 40°40' W 074°02'0 0.0
2018-Jun-20 00:28N 40°40' W 074°02'0 0.0
2018-Jun-19 23:58N 40°40' W 074°02'0 0.0
2018-Jun-19 23:28N 40°40' W 074°02'0 0.0
2018-Jun-19 22:58N 40°40' W 074°02'0 0.0
2018-Jun-19 22:28N 40°40' W 074°02'0 0.1
2018-Jun-19 21:58N 40°40' W 074°02'0 0.1
2018-Jun-19 21:28N 40°40' W 074°02'0 0.0
2018-Jun-19 20:58N 40°40' W 074°02'0 0.0
2018-Jun-19 20:28N 40°40' W 074°02'0 0.3
2018-Jun-19 19:58N 40°40' W 074°02'0 0.2
2018-Jun-19 19:28N 40°40' W 074°02'0 0.1
2018-Jun-19 18:55N 40°40' W 074°02'0 0.1
2018-Jun-19 18:28N 40°40' W 074°02'0 0.0
2018-Jun-19 17:58N 40°40' W 074°02'0 0.0
2018-Jun-19 17:28N 40°40' W 074°02'0 0.0
2018-Jun-19 16:58N 40°40' W 074°02'0 0.3
2018-Jun-19 16:28N 40°40' W 074°02'0 0.1
2018-Jun-19 15:58N 40°40' W 074°02'0 0.0
2018-Jun-19 15:28N 40°40' W 074°02'0 0.1
2018-Jun-19 14:58N 40°40' W 074°02'0 0.0
2018-Jun-19 14:28N 40°40' W 074°02'0 0.0
2018-Jun-19 13:58N 40°40' W 074°02'0 0.0
2018-Jun-19 13:28N 40°40' W 074°02'0 0.0
2018-Jun-19 12:58N 40°40' W 074°02'0 0.0
2018-Jun-19 12:28N 40°40' W 074°02'0 0.0
2018-Jun-19 11:58N 40°40' W 074°02'0 0.0
2018-Jun-19 11:28N 40°40' W 074°02'0 0.0
2018-Jun-19 10:58N 40°40' W 074°02'0 0.0
2018-Jun-19 10:28N 40°40' W 074°02'0 0.1
2018-Jun-19 09:58N 40°40' W 074°02'0 0.0
2018-Jun-19 09:28N 40°40' W 074°02'0 0.0
2018-Jun-19 08:58N 40°40' W 074°02'0 0.1
2018-Jun-19 08:28N 40°40' W 074°02'0 0.1
2018-Jun-19 07:58N 40°40' W 074°02'0 0.1
2018-Jun-19 07:28N 40°40' W 074°02'0 0.0
2018-Jun-19 06:58N 40°40' W 074°02'0 0.0
2018-Jun-19 06:28N 40°40' W 074°02'0 0.0
2018-Jun-19 05:58N 40°40' W 074°02'0 0.0
2018-Jun-19 05:28N 40°40' W 074°02'0 0.0
2018-Jun-19 04:58N 40°40' W 074°02'0 0.1
2018-Jun-19 04:28N 40°40' W 074°02'0 0.1
2018-Jun-19 03:58N 40°40' W 074°02'0 0.1
2018-Jun-19 03:28N 40°40' W 074°02'0 0.0
2018-Jun-19 02:58N 40°40' W 074°02'0 0.2
2018-Jun-19 02:28N 40°40' W 074°02'0 0.2
2018-Jun-19 01:58N 40°40' W 074°02'0 0.1
2018-Jun-19 01:28N 40°40' W 074°02'0 0.1
2018-Jun-19 00:58N 40°40' W 074°02'0 0.3
2018-Jun-19 00:28N 40°40' W 074°02'0 0.2
2018-Jun-18 23:55N 40°40' W 074°02'0 0.1
2018-Jun-18 23:28N 40°40' W 074°02'0 0.0
2018-Jun-18 22:55N 40°40' W 074°02'0 0.0
2018-Jun-18 22:28N 40°40' W 074°02'0 0.1
2018-Jun-18 21:58N 40°40' W 074°02'0 0.1
2018-Jun-18 21:28N 40°40' W 074°02'0 0.0
2018-Jun-18 20:58N 40°40' W 074°02'0 0.1
2018-Jun-18 20:28N 40°40' W 074°02'0 0.2
2018-Jun-18 19:58N 40°40' W 074°02'0 0.1
2018-Jun-18 19:28N 40°40' W 074°02'0 0.0
2018-Jun-18 18:58N 40°40' W 074°02'0 0.1
2018-Jun-18 18:25N 40°40' W 074°02'0 0.1
2018-Jun-18 17:58N 40°40' W 074°02'0 0.0
2018-Jun-18 17:28N 40°40' W 074°02'0 0.0
2018-Jun-18 16:58N 40°40' W 074°02'0 0.0
2018-Jun-18 16:28N 40°40' W 074°02'0 0.0
2018-Jun-18 15:58N 40°40' W 074°02'0 0.0
2018-Jun-18 15:28N 40°40' W 074°02'2 5.1
2018-Jun-18 15:00N 40°39' W 074°05'4 7.2
2018-Jun-18 14:29N 40°39' W 074°10'0 0.0
2018-Jun-18 13:59N 40°39' W 074°10'0 0.0
2018-Jun-18 13:30N 40°39' W 074°10'0 0.0
2018-Jun-18 12:59N 40°39' W 074°10'0 0.0
2018-Jun-18 12:29N 40°39' W 074°10'0 0.0
2018-Jun-18 11:59N 40°39' W 074°10'0 0.0
2018-Jun-18 11:24N 40°39' W 074°10'0 0.0
2018-Jun-18 11:00N 40°39' W 074°10'2 3.8
2018-Jun-18 10:30N 40°39' W 074°07'4 8.0
2018-Jun-18 10:01N 40°40' W 074°02'0 0.1
2018-Jun-18 09:30N 40°40' W 074°02'0 0.0
2018-Jun-18 09:00N 40°40' W 074°02'0 0.0
2018-Jun-18 08:30N 40°40' W 074°02'0 0.0
2018-Jun-18 08:00N 40°40' W 074°02'0 0.0
2018-Jun-18 07:30N 40°40' W 074°02'0 0.3
2018-Jun-18 07:00N 40°40' W 074°02'0 0.2
2018-Jun-18 06:30N 40°40' W 074°02'0 0.1
2018-Jun-18 06:00N 40°40' W 074°02'0 0.0
2018-Jun-18 05:30N 40°40' W 074°02'0 0.0
2018-Jun-18 05:00N 40°40' W 074°02'0 0.0
2018-Jun-18 04:30N 40°40' W 074°02'0 0.0
2018-Jun-18 04:00N 40°40' W 074°02'0 0.0
2018-Jun-18 03:30N 40°40' W 074°02'0 0.0
2018-Jun-18 03:00N 40°40' W 074°02'0 0.0
2018-Jun-18 02:30N 40°40' W 074°02'0 0.0
2018-Jun-18 02:00N 40°40' W 074°02'0 0.2
2018-Jun-18 01:27N 40°40' W 074°02'0 0.1
2018-Jun-18 01:00N 40°40' W 074°02'0 0.1
2018-Jun-18 00:30N 40°40' W 074°02'0 0.1
2018-Jun-18 00:00N 40°40' W 074°02'0 0.1
2018-Jun-17 23:30N 40°40' W 074°02'0 0.0
2018-Jun-17 23:00N 40°40' W 074°02'0 0.1
2018-Jun-17 22:30N 40°40' W 074°02'0 0.0
2018-Jun-17 22:00N 40°40' W 074°02'0 0.0
2018-Jun-17 21:30N 40°40' W 074°02'0 0.1
2018-Jun-17 21:00N 40°40' W 074°02'0 0.0
2018-Jun-17 20:30N 40°40' W 074°02'0 0.0
2018-Jun-17 19:51N 40°40' W 074°02'0 0.0
2018-Jun-17 19:30N 40°40' W 074°02'0 0.3
2018-Jun-17 19:00N 40°40' W 074°02'0 0.1
2018-Jun-17 18:21N 40°40' W 074°02'0 0.1
2018-Jun-17 18:00N 40°40' W 074°02'0 0.0
2018-Jun-17 17:27N 40°40' W 074°02'0 0.1
2018-Jun-17 17:00N 40°40' W 074°02'2 3.1
2018-Jun-17 16:30N 40°42' W 074°02'4 7.1
2018-Jun-17 16:00N 40°45' W 074°01'  

Dump ship's entire track history